sensor_id;sensor_type;location;lat;lon;timestamp;P1;durP1;ratioP1;P2;durP2;ratioP2
9108;SDS011;4590;51.462;6.692;2023-11-19T00:00:24;2.42;;;1.98;;
9108;SDS011;4590;51.462;6.692;2023-11-19T00:02:50;3.03;;;1.67;;
9108;SDS011;4590;51.462;6.692;2023-11-19T00:05:16;2.40;;;1.80;;
9108;SDS011;4590;51.462;6.692;2023-11-19T00:07:41;2.30;;;1.67;;
9108;SDS011;4590;51.462;6.692;2023-11-19T00:10:10;3.57;;;1.93;;
9108;SDS011;4590;51.462;6.692;2023-11-19T00:12:45;3.10;;;1.80;;
9108;SDS011;4590;51.462;6.692;2023-11-19T00:15:15;2.20;;;1.60;;
9108;SDS011;4590;51.462;6.692;2023-11-19T00:17:44;2.20;;;1.55;;
9108;SDS011;4590;51.462;6.692;2023-11-19T00:20:13;2.72;;;1.80;;
9108;SDS011;4590;51.462;6.692;2023-11-19T00:22:40;2.40;;;2.05;;
9108;SDS011;4590;51.462;6.692;2023-11-19T00:25:06;2.30;;;1.77;;
9108;SDS011;4590;51.462;6.692;2023-11-19T00:27:32;3.22;;;2.10;;
9108;SDS011;4590;51.462;6.692;2023-11-19T00:29:57;2.70;;;1.93;;
9108;SDS011;4590;51.462;6.692;2023-11-19T00:32:23;3.27;;;2.30;;
9108;SDS011;4590;51.462;6.692;2023-11-19T00:34:48;2.63;;;1.93;;
9108;SDS011;4590;51.462;6.692;2023-11-19T00:37:14;2.53;;;1.57;;
9108;SDS011;4590;51.462;6.692;2023-11-19T00:42:06;1.95;;;1.70;;
9108;SDS011;4590;51.462;6.692;2023-11-19T00:44:31;2.40;;;1.60;;
9108;SDS011;4590;51.462;6.692;2023-11-19T00:46:56;2.97;;;1.87;;
9108;SDS011;4590;51.462;6.692;2023-11-19T00:49:21;2.13;;;1.70;;
9108;SDS011;4590;51.462;6.692;2023-11-19T00:51:47;2.67;;;1.67;;
9108;SDS011;4590;51.462;6.692;2023-11-19T00:54:12;3.30;;;1.80;;
9108;SDS011;4590;51.462;6.692;2023-11-19T00:56:37;3.10;;;1.77;;
9108;SDS011;4590;51.462;6.692;2023-11-19T00:59:02;3.03;;;2.20;;
9108;SDS011;4590;51.462;6.692;2023-11-19T01:01:28;2.83;;;1.88;;
9108;SDS011;4590;51.462;6.692;2023-11-19T01:03:54;4.35;;;1.88;;
9108;SDS011;4590;51.462;6.692;2023-11-19T01:06:31;2.38;;;1.77;;
9108;SDS011;4590;51.462;6.692;2023-11-19T01:08:57;3.53;;;2.03;;
9108;SDS011;4590;51.462;6.692;2023-11-19T01:11:24;2.90;;;1.90;;
9108;SDS011;4590;51.462;6.692;2023-11-19T01:13:50;2.05;;;1.60;;
9108;SDS011;4590;51.462;6.692;2023-11-19T01:16:16;2.20;;;1.73;;
9108;SDS011;4590;51.462;6.692;2023-11-19T01:18:42;2.88;;;1.90;;
9108;SDS011;4590;51.462;6.692;2023-11-19T01:21:07;1.70;;;1.47;;
9108;SDS011;4590;51.462;6.692;2023-11-19T01:23:33;2.03;;;1.52;;
9108;SDS011;4590;51.462;6.692;2023-11-19T01:25:59;2.10;;;1.90;;
9108;SDS011;4590;51.462;6.692;2023-11-19T01:28:24;2.00;;;1.80;;
9108;SDS011;4590;51.462;6.692;2023-11-19T01:30:52;1.60;;;1.30;;
9108;SDS011;4590;51.462;6.692;2023-11-19T01:33:18;2.20;;;1.75;;
9108;SDS011;4590;51.462;6.692;2023-11-19T01:35:43;1.92;;;1.63;;
9108;SDS011;4590;51.462;6.692;2023-11-19T01:38:09;2.10;;;1.70;;
9108;SDS011;4590;51.462;6.692;2023-11-19T01:40:34;2.37;;;1.70;;
9108;SDS011;4590;51.462;6.692;2023-11-19T01:43:01;1.50;;;1.30;;
9108;SDS011;4590;51.462;6.692;2023-11-19T01:45:27;1.50;;;1.30;;
9108;SDS011;4590;51.462;6.692;2023-11-19T01:47:57;2.22;;;1.33;;
9108;SDS011;4590;51.462;6.692;2023-11-19T01:50:25;1.85;;;1.17;;
9108;SDS011;4590;51.462;6.692;2023-11-19T01:55:22;1.60;;;1.10;;
9108;SDS011;4590;51.462;6.692;2023-11-19T01:57:49;1.80;;;1.25;;
9108;SDS011;4590;51.462;6.692;2023-11-19T02:00:16;1.60;;;1.17;;
9108;SDS011;4590;51.462;6.692;2023-11-19T02:02:44;2.20;;;1.27;;
9108;SDS011;4590;51.462;6.692;2023-11-19T02:05:11;3.03;;;1.20;;
9108;SDS011;4590;51.462;6.692;2023-11-19T02:07:38;2.10;;;1.13;;
9108;SDS011;4590;51.462;6.692;2023-11-19T02:10:03;4.03;;;1.63;;
9108;SDS011;4590;51.462;6.692;2023-11-19T02:12:30;2.65;;;1.65;;
9108;SDS011;4590;51.462;6.692;2023-11-19T02:14:59;4.32;;;1.50;;
9108;SDS011;4590;51.462;6.692;2023-11-19T02:17:28;3.92;;;1.40;;
9108;SDS011;4590;51.462;6.692;2023-11-19T02:19:56;2.60;;;1.40;;
9108;SDS011;4590;51.462;6.692;2023-11-19T02:22:21;3.30;;;1.23;;
9108;SDS011;4590;51.462;6.692;2023-11-19T02:24:47;3.35;;;1.38;;
9108;SDS011;4590;51.462;6.692;2023-11-19T02:27:18;1.85;;;1.20;;
9108;SDS011;4590;51.462;6.692;2023-11-19T02:29:55;2.70;;;1.27;;
9108;SDS011;4590;51.462;6.692;2023-11-19T02:32:22;3.78;;;1.35;;
9108;SDS011;4590;51.462;6.692;2023-11-19T02:34:48;3.45;;;1.20;;
9108;SDS011;4590;51.462;6.692;2023-11-19T02:37:13;6.03;;;1.70;;
9108;SDS011;4590;51.462;6.692;2023-11-19T02:39:39;5.10;;;1.13;;
9108;SDS011;4590;51.462;6.692;2023-11-19T02:42:06;2.83;;;1.08;;
9108;SDS011;4590;51.462;6.692;2023-11-19T02:44:33;4.75;;;1.40;;
9108;SDS011;4590;51.462;6.692;2023-11-19T02:46:59;3.50;;;1.15;;
9108;SDS011;4590;51.462;6.692;2023-11-19T02:49:24;6.37;;;1.20;;
9108;SDS011;4590;51.462;6.692;2023-11-19T02:51:50;3.93;;;1.17;;
9108;SDS011;4590;51.462;6.692;2023-11-19T02:54:15;4.57;;;1.10;;
9108;SDS011;4590;51.462;6.692;2023-11-19T02:56:42;5.20;;;1.20;;
9108;SDS011;4590;51.462;6.692;2023-11-19T02:59:07;3.22;;;1.20;;
9108;SDS011;4590;51.462;6.692;2023-11-19T03:01:40;6.82;;;1.42;;
9108;SDS011;4590;51.462;6.692;2023-11-19T03:04:08;3.47;;;1.15;;
9108;SDS011;4590;51.462;6.692;2023-11-19T03:06:37;4.68;;;1.65;;
9108;SDS011;4590;51.462;6.692;2023-11-19T03:09:02;4.07;;;0.95;;
9108;SDS011;4590;51.462;6.692;2023-11-19T03:11:33;4.05;;;1.73;;
9108;SDS011;4590;51.462;6.692;2023-11-19T03:13:58;5.00;;;1.43;;
9108;SDS011;4590;51.462;6.692;2023-11-19T03:16:24;7.17;;;1.33;;
9108;SDS011;4590;51.462;6.692;2023-11-19T03:18:49;5.97;;;1.50;;
9108;SDS011;4590;51.462;6.692;2023-11-19T03:21:14;4.10;;;1.57;;
9108;SDS011;4590;51.462;6.692;2023-11-19T03:23:39;5.63;;;1.77;;
9108;SDS011;4590;51.462;6.692;2023-11-19T03:26:05;6.70;;;1.37;;
9108;SDS011;4590;51.462;6.692;2023-11-19T03:28:30;3.63;;;1.80;;
9108;SDS011;4590;51.462;6.692;2023-11-19T03:30:56;5.53;;;1.60;;
9108;SDS011;4590;51.462;6.692;2023-11-19T03:33:21;9.57;;;2.07;;
9108;SDS011;4590;51.462;6.692;2023-11-19T03:35:47;5.37;;;1.80;;
9108;SDS011;4590;51.462;6.692;2023-11-19T03:38:12;8.23;;;2.30;;
9108;SDS011;4590;51.462;6.692;2023-11-19T03:40:39;7.03;;;2.50;;
9108;SDS011;4590;51.462;6.692;2023-11-19T03:43:04;5.60;;;1.80;;
9108;SDS011;4590;51.462;6.692;2023-11-19T03:45:30;7.53;;;2.08;;
9108;SDS011;4590;51.462;6.692;2023-11-19T03:47:55;7.40;;;1.97;;
9108;SDS011;4590;51.462;6.692;2023-11-19T03:50:20;6.87;;;2.33;;
9108;SDS011;4590;51.462;6.692;2023-11-19T03:52:46;7.40;;;1.70;;
9108;SDS011;4590;51.462;6.692;2023-11-19T03:55:12;8.60;;;2.58;;
9108;SDS011;4590;51.462;6.692;2023-11-19T03:57:37;9.43;;;2.90;;
9108;SDS011;4590;51.462;6.692;2023-11-19T04:00:03;8.73;;;2.05;;
9108;SDS011;4590;51.462;6.692;2023-11-19T04:02:36;9.23;;;1.98;;
9108;SDS011;4590;51.462;6.692;2023-11-19T04:07:28;8.30;;;2.50;;
9108;SDS011;4590;51.462;6.692;2023-11-19T04:09:53;7.27;;;1.73;;
9108;SDS011;4590;51.462;6.692;2023-11-19T04:12:18;7.63;;;2.07;;
9108;SDS011;4590;51.462;6.692;2023-11-19T04:14:44;6.13;;;1.65;;
9108;SDS011;4590;51.462;6.692;2023-11-19T04:17:09;6.83;;;2.10;;
9108;SDS011;4590;51.462;6.692;2023-11-19T04:19:35;6.15;;;1.95;;
9108;SDS011;4590;51.462;6.692;2023-11-19T04:22:00;8.33;;;1.80;;
9108;SDS011;4590;51.462;6.692;2023-11-19T04:24:25;9.87;;;2.37;;
9108;SDS011;4590;51.462;6.692;2023-11-19T04:26:51;13.17;;;1.90;;
9108;SDS011;4590;51.462;6.692;2023-11-19T04:31:43;10.45;;;1.90;;
9108;SDS011;4590;51.462;6.692;2023-11-19T04:34:11;10.35;;;2.83;;
9108;SDS011;4590;51.462;6.692;2023-11-19T04:36:37;10.45;;;2.95;;
9108;SDS011;4590;51.462;6.692;2023-11-19T04:39:03;11.30;;;2.03;;
9108;SDS011;4590;51.462;6.692;2023-11-19T04:41:34;8.13;;;2.20;;
9108;SDS011;4590;51.462;6.692;2023-11-19T04:44:00;11.77;;;2.42;;
9108;SDS011;4590;51.462;6.692;2023-11-19T04:46:25;16.00;;;2.73;;
9108;SDS011;4590;51.462;6.692;2023-11-19T04:48:50;10.00;;;2.40;;
9108;SDS011;4590;51.462;6.692;2023-11-19T04:51:16;12.30;;;2.30;;
9108;SDS011;4590;51.462;6.692;2023-11-19T04:53:41;13.57;;;2.90;;
9108;SDS011;4590;51.462;6.692;2023-11-19T04:56:07;12.33;;;3.40;;
9108;SDS011;4590;51.462;6.692;2023-11-19T04:58:34;13.40;;;3.00;;
9108;SDS011;4590;51.462;6.692;2023-11-19T05:01:00;12.85;;;2.70;;
9108;SDS011;4590;51.462;6.692;2023-11-19T05:03:26;11.93;;;2.65;;
9108;SDS011;4590;51.462;6.692;2023-11-19T05:05:51;9.17;;;2.03;;
9108;SDS011;4590;51.462;6.692;2023-11-19T05:08:17;11.97;;;2.43;;
9108;SDS011;4590;51.462;6.692;2023-11-19T05:10:42;14.67;;;2.87;;
9108;SDS011;4590;51.462;6.692;2023-11-19T05:13:07;12.23;;;2.13;;
9108;SDS011;4590;51.462;6.692;2023-11-19T05:15:32;9.77;;;2.30;;
9108;SDS011;4590;51.462;6.692;2023-11-19T05:17:58;11.93;;;2.63;;
9108;SDS011;4590;51.462;6.692;2023-11-19T05:20:23;12.40;;;3.03;;
9108;SDS011;4590;51.462;6.692;2023-11-19T05:22:48;13.33;;;2.63;;
9108;SDS011;4590;51.462;6.692;2023-11-19T05:25:16;7.97;;;2.10;;
9108;SDS011;4590;51.462;6.692;2023-11-19T05:27:41;10.47;;;2.13;;
9108;SDS011;4590;51.462;6.692;2023-11-19T05:30:07;17.03;;;3.83;;
9108;SDS011;4590;51.462;6.692;2023-11-19T05:32:33;11.00;;;3.15;;
9108;SDS011;4590;51.462;6.692;2023-11-19T05:34:58;10.63;;;2.20;;
9108;SDS011;4590;51.462;6.692;2023-11-19T05:37:23;13.50;;;2.40;;
9108;SDS011;4590;51.462;6.692;2023-11-19T05:39:50;9.75;;;2.65;;
9108;SDS011;4590;51.462;6.692;2023-11-19T05:42:15;12.57;;;3.03;;
9108;SDS011;4590;51.462;6.692;2023-11-19T05:44:41;11.33;;;2.17;;
9108;SDS011;4590;51.462;6.692;2023-11-19T05:47:06;14.23;;;3.30;;
9108;SDS011;4590;51.462;6.692;2023-11-19T05:49:32;12.50;;;2.72;;
9108;SDS011;4590;51.462;6.692;2023-11-19T05:51:58;13.60;;;3.60;;
9108;SDS011;4590;51.462;6.692;2023-11-19T05:54:24;9.98;;;2.45;;
9108;SDS011;4590;51.462;6.692;2023-11-19T05:56:49;17.57;;;3.23;;
9108;SDS011;4590;51.462;6.692;2023-11-19T05:59:15;14.45;;;3.00;;
9108;SDS011;4590;51.462;6.692;2023-11-19T06:01:43;14.00;;;2.40;;
9108;SDS011;4590;51.462;6.692;2023-11-19T06:04:08;10.95;;;2.78;;
9108;SDS011;4590;51.462;6.692;2023-11-19T06:06:35;13.50;;;3.10;;
9108;SDS011;4590;51.462;6.692;2023-11-19T06:09:00;11.10;;;2.33;;
9108;SDS011;4590;51.462;6.692;2023-11-19T06:11:26;16.55;;;3.38;;
9108;SDS011;4590;51.462;6.692;2023-11-19T06:13:52;16.47;;;2.83;;
9108;SDS011;4590;51.462;6.692;2023-11-19T06:16:17;15.75;;;3.17;;
9108;SDS011;4590;51.462;6.692;2023-11-19T06:18:43;11.53;;;3.33;;
9108;SDS011;4590;51.462;6.692;2023-11-19T06:21:09;12.00;;;2.78;;
9108;SDS011;4590;51.462;6.692;2023-11-19T06:23:34;11.33;;;2.23;;
9108;SDS011;4590;51.462;6.692;2023-11-19T06:25:59;11.07;;;2.40;;
9108;SDS011;4590;51.462;6.692;2023-11-19T06:28:25;16.43;;;2.80;;
9108;SDS011;4590;51.462;6.692;2023-11-19T06:30:50;15.73;;;3.27;;
9108;SDS011;4590;51.462;6.692;2023-11-19T06:33:15;15.70;;;3.70;;
9108;SDS011;4590;51.462;6.692;2023-11-19T06:35:41;16.90;;;3.00;;
9108;SDS011;4590;51.462;6.692;2023-11-19T06:38:06;15.67;;;2.97;;
9108;SDS011;4590;51.462;6.692;2023-11-19T06:40:32;12.23;;;2.73;;
9108;SDS011;4590;51.462;6.692;2023-11-19T06:45:23;18.73;;;3.58;;
9108;SDS011;4590;51.462;6.692;2023-11-19T06:47:48;12.67;;;2.20;;
9108;SDS011;4590;51.462;6.692;2023-11-19T06:50:14;12.63;;;2.60;;
9108;SDS011;4590;51.462;6.692;2023-11-19T06:52:40;14.18;;;4.38;;
9108;SDS011;4590;51.462;6.692;2023-11-19T06:55:05;17.93;;;3.57;;
9108;SDS011;4590;51.462;6.692;2023-11-19T06:57:31;16.80;;;3.28;;
9108;SDS011;4590;51.462;6.692;2023-11-19T06:59:57;14.63;;;3.45;;
9108;SDS011;4590;51.462;6.692;2023-11-19T07:04:49;12.88;;;2.60;;
9108;SDS011;4590;51.462;6.692;2023-11-19T07:07:14;11.83;;;2.33;;
9108;SDS011;4590;51.462;6.692;2023-11-19T07:09:40;10.85;;;3.05;;
9108;SDS011;4590;51.462;6.692;2023-11-19T07:12:05;16.83;;;3.43;;
9108;SDS011;4590;51.462;6.692;2023-11-19T07:14:31;16.37;;;4.30;;
9108;SDS011;4590;51.462;6.692;2023-11-19T07:16:56;12.05;;;2.90;;
9108;SDS011;4590;51.462;6.692;2023-11-19T07:19:22;14.17;;;2.60;;
9108;SDS011;4590;51.462;6.692;2023-11-19T07:21:47;19.97;;;3.57;;
9108;SDS011;4590;51.462;6.692;2023-11-19T07:24:12;20.40;;;3.50;;
9108;SDS011;4590;51.462;6.692;2023-11-19T07:26:42;13.90;;;3.03;;
9108;SDS011;4590;51.462;6.692;2023-11-19T07:29:08;12.85;;;3.15;;
9108;SDS011;4590;51.462;6.692;2023-11-19T07:31:34;15.23;;;2.83;;
9108;SDS011;4590;51.462;6.692;2023-11-19T07:33:59;15.83;;;3.03;;
9108;SDS011;4590;51.462;6.692;2023-11-19T07:36:24;15.33;;;2.37;;
9108;SDS011;4590;51.462;6.692;2023-11-19T07:38:49;12.07;;;3.03;;
9108;SDS011;4590;51.462;6.692;2023-11-19T07:41:15;10.80;;;2.35;;
9108;SDS011;4590;51.462;6.692;2023-11-19T07:43:42;14.70;;;3.20;;
9108;SDS011;4590;51.462;6.692;2023-11-19T07:46:12;11.43;;;2.83;;
9108;SDS011;4590;51.462;6.692;2023-11-19T07:48:39;12.02;;;2.88;;
9108;SDS011;4590;51.462;6.692;2023-11-19T07:51:04;18.67;;;3.53;;
9108;SDS011;4590;51.462;6.692;2023-11-19T07:53:30;14.52;;;3.67;;
9108;SDS011;4590;51.462;6.692;2023-11-19T07:55:55;15.87;;;2.90;;
9108;SDS011;4590;51.462;6.692;2023-11-19T07:58:21;14.20;;;3.27;;
9108;SDS011;4590;51.462;6.692;2023-11-19T08:00:46;12.53;;;2.97;;
9108;SDS011;4590;51.462;6.692;2023-11-19T08:03:11;15.97;;;2.70;;
9108;SDS011;4590;51.462;6.692;2023-11-19T08:05:37;14.60;;;3.10;;
9108;SDS011;4590;51.462;6.692;2023-11-19T08:08:02;18.40;;;3.43;;
9108;SDS011;4590;51.462;6.692;2023-11-19T08:10:27;14.60;;;2.90;;
9108;SDS011;4590;51.462;6.692;2023-11-19T08:12:53;14.50;;;2.60;;
9108;SDS011;4590;51.462;6.692;2023-11-19T08:15:19;14.67;;;3.37;;
9108;SDS011;4590;51.462;6.692;2023-11-19T08:17:44;15.82;;;2.67;;
9108;SDS011;4590;51.462;6.692;2023-11-19T08:20:10;14.83;;;3.40;;
9108;SDS011;4590;51.462;6.692;2023-11-19T08:22:36;12.77;;;3.05;;
9108;SDS011;4590;51.462;6.692;2023-11-19T08:25:02;13.30;;;2.83;;
9108;SDS011;4590;51.462;6.692;2023-11-19T08:27:31;15.30;;;3.33;;
9108;SDS011;4590;51.462;6.692;2023-11-19T08:29:56;13.45;;;2.75;;
9108;SDS011;4590;51.462;6.692;2023-11-19T08:32:28;18.53;;;3.90;;
9108;SDS011;4590;51.462;6.692;2023-11-19T08:34:53;23.08;;;4.00;;
9108;SDS011;4590;51.462;6.692;2023-11-19T08:37:19;13.43;;;2.75;;
9108;SDS011;4590;51.462;6.692;2023-11-19T08:39:46;15.05;;;3.60;;
9108;SDS011;4590;51.462;6.692;2023-11-19T08:42:12;10.82;;;2.92;;
9108;SDS011;4590;51.462;6.692;2023-11-19T08:44:38;15.95;;;3.25;;
9108;SDS011;4590;51.462;6.692;2023-11-19T08:47:03;20.33;;;3.50;;
9108;SDS011;4590;51.462;6.692;2023-11-19T08:49:29;15.43;;;3.27;;
9108;SDS011;4590;51.462;6.692;2023-11-19T08:51:54;20.87;;;3.27;;
9108;SDS011;4590;51.462;6.692;2023-11-19T08:54:19;14.17;;;3.03;;
9108;SDS011;4590;51.462;6.692;2023-11-19T08:56:46;13.57;;;3.00;;
9108;SDS011;4590;51.462;6.692;2023-11-19T08:59:11;12.97;;;2.87;;
9108;SDS011;4590;51.462;6.692;2023-11-19T09:01:37;13.17;;;3.00;;
9108;SDS011;4590;51.462;6.692;2023-11-19T09:04:02;15.33;;;3.80;;
9108;SDS011;4590;51.462;6.692;2023-11-19T09:06:27;15.67;;;3.30;;
9108;SDS011;4590;51.462;6.692;2023-11-19T09:08:53;11.00;;;3.03;;
9108;SDS011;4590;51.462;6.692;2023-11-19T09:11:18;16.33;;;3.47;;
9108;SDS011;4590;51.462;6.692;2023-11-19T09:13:43;14.93;;;2.90;;
9108;SDS011;4590;51.462;6.692;2023-11-19T09:16:11;12.65;;;3.03;;
9108;SDS011;4590;51.462;6.692;2023-11-19T09:18:37;13.57;;;2.72;;
9108;SDS011;4590;51.462;6.692;2023-11-19T09:21:02;11.87;;;2.53;;
9108;SDS011;4590;51.462;6.692;2023-11-19T09:23:28;15.68;;;2.55;;
9108;SDS011;4590;51.462;6.692;2023-11-19T09:25:55;15.68;;;3.15;;
9108;SDS011;4590;51.462;6.692;2023-11-19T09:28:21;15.20;;;3.50;;
9108;SDS011;4590;51.462;6.692;2023-11-19T09:30:46;13.27;;;3.70;;
9108;SDS011;4590;51.462;6.692;2023-11-19T09:33:11;16.83;;;4.03;;
9108;SDS011;4590;51.462;6.692;2023-11-19T09:35:37;17.23;;;2.80;;
9108;SDS011;4590;51.462;6.692;2023-11-19T09:38:02;23.90;;;4.00;;
9108;SDS011;4590;51.462;6.692;2023-11-19T09:40:27;15.50;;;3.60;;
9108;SDS011;4590;51.462;6.692;2023-11-19T09:42:53;11.50;;;3.22;;
9108;SDS011;4590;51.462;6.692;2023-11-19T09:45:20;17.83;;;3.13;;
9108;SDS011;4590;51.462;6.692;2023-11-19T09:47:47;16.23;;;3.35;;
9108;SDS011;4590;51.462;6.692;2023-11-19T09:50:14;15.55;;;3.60;;
9108;SDS011;4590;51.462;6.692;2023-11-19T09:52:42;11.48;;;3.22;;
9108;SDS011;4590;51.462;6.692;2023-11-19T09:55:08;15.20;;;3.33;;
9108;SDS011;4590;51.462;6.692;2023-11-19T09:57:33;17.02;;;3.05;;
9108;SDS011;4590;51.462;6.692;2023-11-19T10:00:02;15.35;;;2.97;;
9108;SDS011;4590;51.462;6.692;2023-11-19T10:02:29;17.77;;;3.13;;
9108;SDS011;4590;51.462;6.692;2023-11-19T10:04:58;13.15;;;3.10;;
9108;SDS011;4590;51.462;6.692;2023-11-19T10:07:24;20.80;;;3.47;;
9108;SDS011;4590;51.462;6.692;2023-11-19T10:09:50;19.23;;;4.13;;
9108;SDS011;4590;51.462;6.692;2023-11-19T10:12:15;12.73;;;2.83;;
9108;SDS011;4590;51.462;6.692;2023-11-19T10:14:41;23.05;;;4.95;;
9108;SDS011;4590;51.462;6.692;2023-11-19T10:17:08;17.42;;;4.60;;
9108;SDS011;4590;51.462;6.692;2023-11-19T10:19:34;13.27;;;3.38;;
9108;SDS011;4590;51.462;6.692;2023-11-19T10:22:06;14.70;;;3.83;;
9108;SDS011;4590;51.462;6.692;2023-11-19T10:24:32;16.55;;;3.58;;
9108;SDS011;4590;51.462;6.692;2023-11-19T10:27:02;16.90;;;3.55;;
9108;SDS011;4590;51.462;6.692;2023-11-19T10:29:35;15.05;;;3.22;;
9108;SDS011;4590;51.462;6.692;2023-11-19T10:32:01;10.73;;;2.78;;
9108;SDS011;4590;51.462;6.692;2023-11-19T10:34:27;15.23;;;2.77;;
9108;SDS011;4590;51.462;6.692;2023-11-19T10:36:52;13.63;;;3.22;;
9108;SDS011;4590;51.462;6.692;2023-11-19T10:39:18;12.82;;;2.53;;
9108;SDS011;4590;51.462;6.692;2023-11-19T10:41:44;16.60;;;3.38;;
9108;SDS011;4590;51.462;6.692;2023-11-19T10:44:09;16.67;;;3.50;;
9108;SDS011;4590;51.462;6.692;2023-11-19T10:49:07;14.90;;;3.20;;
9108;SDS011;4590;51.462;6.692;2023-11-19T10:51:33;15.20;;;3.05;;
9108;SDS011;4590;51.462;6.692;2023-11-19T10:54:04;15.40;;;3.20;;
9108;SDS011;4590;51.462;6.692;2023-11-19T10:56:31;18.05;;;3.20;;
9108;SDS011;4590;51.462;6.692;2023-11-19T10:58:57;15.85;;;3.33;;
9108;SDS011;4590;51.462;6.692;2023-11-19T11:01:24;14.40;;;2.85;;
9108;SDS011;4590;51.462;6.692;2023-11-19T11:03:55;11.77;;;2.33;;
9108;SDS011;4590;51.462;6.692;2023-11-19T11:06:24;17.02;;;2.92;;
9108;SDS011;4590;51.462;6.692;2023-11-19T11:08:51;15.30;;;3.13;;
9108;SDS011;4590;51.462;6.692;2023-11-19T11:11:16;18.27;;;3.92;;
9108;SDS011;4590;51.462;6.692;2023-11-19T11:13:48;12.27;;;2.78;;
9108;SDS011;4590;51.462;6.692;2023-11-19T11:16:15;16.23;;;4.25;;
9108;SDS011;4590;51.462;6.692;2023-11-19T11:18:44;18.42;;;4.75;;
9108;SDS011;4590;51.462;6.692;2023-11-19T11:21:14;9.57;;;3.38;;
9108;SDS011;4590;51.462;6.692;2023-11-19T11:29:41;13.57;;;3.17;;
9108;SDS011;4590;51.462;6.692;2023-11-19T11:37:47;11.00;;;3.13;;
9108;SDS011;4590;51.462;6.692;2023-11-19T11:40:16;17.10;;;3.38;;
9108;SDS011;4590;51.462;6.692;2023-11-19T11:42:43;12.50;;;3.35;;
9108;SDS011;4590;51.462;6.692;2023-11-19T11:45:10;11.40;;;3.80;;
9108;SDS011;4590;51.462;6.692;2023-11-19T11:50:12;21.52;;;3.35;;
9108;SDS011;4590;51.462;6.692;2023-11-19T11:55:33;11.85;;;2.85;;
9108;SDS011;4590;51.462;6.692;2023-11-19T11:58:01;11.38;;;2.85;;
9108;SDS011;4590;51.462;6.692;2023-11-19T12:00:27;12.40;;;2.83;;
9108;SDS011;4590;51.462;6.692;2023-11-19T12:02:55;10.75;;;2.83;;
9108;SDS011;4590;51.462;6.692;2023-11-19T12:05:21;12.10;;;2.97;;
9108;SDS011;4590;51.462;6.692;2023-11-19T12:07:57;13.07;;;3.58;;
9108;SDS011;4590;51.462;6.692;2023-11-19T12:10:26;12.45;;;2.22;;
9108;SDS011;4590;51.462;6.692;2023-11-19T12:12:59;8.55;;;1.95;;
9108;SDS011;4590;51.462;6.692;2023-11-19T12:15:31;10.30;;;2.50;;
9108;SDS011;4590;51.462;6.692;2023-11-19T12:17:56;13.27;;;2.73;;
9108;SDS011;4590;51.462;6.692;2023-11-19T12:20:22;11.57;;;3.00;;
9108;SDS011;4590;51.462;6.692;2023-11-19T12:22:51;9.38;;;3.38;;
9108;SDS011;4590;51.462;6.692;2023-11-19T12:25:18;12.82;;;3.15;;
9108;SDS011;4590;51.462;6.692;2023-11-19T12:27:46;8.63;;;2.30;;
9108;SDS011;4590;51.462;6.692;2023-11-19T12:30:12;13.32;;;2.92;;
9108;SDS011;4590;51.462;6.692;2023-11-19T12:32:42;9.73;;;2.83;;
9108;SDS011;4590;51.462;6.692;2023-11-19T12:35:11;11.77;;;2.70;;
9108;SDS011;4590;51.462;6.692;2023-11-19T12:37:41;10.82;;;2.95;;
9108;SDS011;4590;51.462;6.692;2023-11-19T12:42:42;14.07;;;3.28;;
9108;SDS011;4590;51.462;6.692;2023-11-19T12:45:09;8.20;;;2.10;;
9108;SDS011;4590;51.462;6.692;2023-11-19T12:47:38;11.60;;;2.35;;
9108;SDS011;4590;51.462;6.692;2023-11-19T12:50:07;9.98;;;2.95;;
9108;SDS011;4590;51.462;6.692;2023-11-19T12:52:34;9.80;;;2.10;;
9108;SDS011;4590;51.462;6.692;2023-11-19T12:55:00;9.48;;;2.17;;
9108;SDS011;4590;51.462;6.692;2023-11-19T12:57:35;11.20;;;2.78;;
9108;SDS011;4590;51.462;6.692;2023-11-19T13:00:05;7.55;;;1.88;;
9108;SDS011;4590;51.462;6.692;2023-11-19T13:02:44;7.85;;;1.70;;
9108;SDS011;4590;51.462;6.692;2023-11-19T13:05:27;13.43;;;4.40;;
9108;SDS011;4590;51.462;6.692;2023-11-19T13:08:05;8.70;;;2.50;;
9108;SDS011;4590;51.462;6.692;2023-11-19T13:10:32;11.15;;;2.80;;
9108;SDS011;4590;51.462;6.692;2023-11-19T13:13:00;7.10;;;1.90;;
9108;SDS011;4590;51.462;6.692;2023-11-19T13:15:33;9.75;;;2.83;;
9108;SDS011;4590;51.462;6.692;2023-11-19T13:17:59;10.32;;;2.63;;
9108;SDS011;4590;51.462;6.692;2023-11-19T13:20:25;11.77;;;3.08;;
9108;SDS011;4590;51.462;6.692;2023-11-19T13:22:57;14.00;;;3.70;;
9108;SDS011;4590;51.462;6.692;2023-11-19T13:25:23;7.85;;;2.92;;
9108;SDS011;4590;51.462;6.692;2023-11-19T13:27:49;11.20;;;2.47;;
9108;SDS011;4590;51.462;6.692;2023-11-19T13:30:15;14.43;;;2.23;;
9108;SDS011;4590;51.462;6.692;2023-11-19T13:32:41;10.43;;;2.30;;
9108;SDS011;4590;51.462;6.692;2023-11-19T13:35:06;10.20;;;3.83;;
9108;SDS011;4590;51.462;6.692;2023-11-19T13:37:33;16.77;;;5.38;;
9108;SDS011;4590;51.462;6.692;2023-11-19T13:39:59;13.82;;;4.13;;
9108;SDS011;4590;51.462;6.692;2023-11-19T13:42:24;13.70;;;3.40;;
9108;SDS011;4590;51.462;6.692;2023-11-19T13:44:49;14.23;;;3.40;;
9108;SDS011;4590;51.462;6.692;2023-11-19T13:47:15;11.90;;;2.80;;
9108;SDS011;4590;51.462;6.692;2023-11-19T13:49:40;8.13;;;2.30;;
9108;SDS011;4590;51.462;6.692;2023-11-19T13:52:05;8.07;;;2.37;;
9108;SDS011;4590;51.462;6.692;2023-11-19T13:54:30;13.53;;;3.67;;
9108;SDS011;4590;51.462;6.692;2023-11-19T13:56:56;8.57;;;2.77;;
9108;SDS011;4590;51.462;6.692;2023-11-19T13:59:25;11.93;;;3.08;;
9108;SDS011;4590;51.462;6.692;2023-11-19T14:01:52;16.80;;;3.38;;
9108;SDS011;4590;51.462;6.692;2023-11-19T14:04:17;7.67;;;1.90;;
9108;SDS011;4590;51.462;6.692;2023-11-19T14:06:44;7.30;;;2.33;;
9108;SDS011;4590;51.462;6.692;2023-11-19T14:09:10;9.60;;;2.38;;
9108;SDS011;4590;51.462;6.692;2023-11-19T14:11:35;9.83;;;2.50;;
9108;SDS011;4590;51.462;6.692;2023-11-19T14:14:00;10.17;;;2.97;;
9108;SDS011;4590;51.462;6.692;2023-11-19T14:16:26;11.43;;;2.47;;
9108;SDS011;4590;51.462;6.692;2023-11-19T14:18:52;8.10;;;2.15;;
9108;SDS011;4590;51.462;6.692;2023-11-19T14:21:17;9.35;;;2.90;;
9108;SDS011;4590;51.462;6.692;2023-11-19T14:23:43;10.53;;;2.70;;
9108;SDS011;4590;51.462;6.692;2023-11-19T14:26:08;8.07;;;2.33;;
9108;SDS011;4590;51.462;6.692;2023-11-19T14:28:33;11.27;;;2.67;;
9108;SDS011;4590;51.462;6.692;2023-11-19T14:30:59;17.97;;;5.00;;
9108;SDS011;4590;51.462;6.692;2023-11-19T14:33:24;13.70;;;4.63;;
9108;SDS011;4590;51.462;6.692;2023-11-19T14:35:49;15.10;;;5.53;;
9108;SDS011;4590;51.462;6.692;2023-11-19T14:38:15;17.27;;;6.73;;
9108;SDS011;4590;51.462;6.692;2023-11-19T14:40:40;11.83;;;5.13;;
9108;SDS011;4590;51.462;6.692;2023-11-19T14:43:07;11.52;;;4.47;;
9108;SDS011;4590;51.462;6.692;2023-11-19T14:45:35;13.90;;;5.57;;
9108;SDS011;4590;51.462;6.692;2023-11-19T14:48:00;12.40;;;5.00;;
9108;SDS011;4590;51.462;6.692;2023-11-19T14:50:26;14.37;;;5.50;;
9108;SDS011;4590;51.462;6.692;2023-11-19T14:52:51;11.53;;;4.70;;
9108;SDS011;4590;51.462;6.692;2023-11-19T14:55:16;13.17;;;3.80;;
9108;SDS011;4590;51.462;6.692;2023-11-19T14:57:42;15.33;;;4.53;;
9108;SDS011;4590;51.462;6.692;2023-11-19T15:00:09;13.20;;;6.18;;
9108;SDS011;4590;51.462;6.692;2023-11-19T15:02:38;16.52;;;6.20;;
9108;SDS011;4590;51.462;6.692;2023-11-19T15:05:07;12.07;;;4.05;;
9108;SDS011;4590;51.462;6.692;2023-11-19T15:07:35;12.02;;;4.25;;
9108;SDS011;4590;51.462;6.692;2023-11-19T15:10:01;10.40;;;3.42;;
9108;SDS011;4590;51.462;6.692;2023-11-19T15:12:27;12.50;;;3.47;;
9108;SDS011;4590;51.462;6.692;2023-11-19T15:14:53;9.05;;;2.67;;
9108;SDS011;4590;51.462;6.692;2023-11-19T15:17:18;13.17;;;3.30;;
9108;SDS011;4590;51.462;6.692;2023-11-19T15:19:44;10.33;;;3.43;;
9108;SDS011;4590;51.462;6.692;2023-11-19T15:22:11;12.85;;;2.55;;
9108;SDS011;4590;51.462;6.692;2023-11-19T15:24:36;10.82;;;3.08;;
9108;SDS011;4590;51.462;6.692;2023-11-19T15:27:04;10.43;;;3.97;;
9108;SDS011;4590;51.462;6.692;2023-11-19T15:29:30;9.90;;;2.83;;
9108;SDS011;4590;51.462;6.692;2023-11-19T15:31:55;14.90;;;4.20;;
9108;SDS011;4590;51.462;6.692;2023-11-19T15:34:20;12.13;;;3.50;;
9108;SDS011;4590;51.462;6.692;2023-11-19T15:36:46;8.93;;;2.67;;
9108;SDS011;4590;51.462;6.692;2023-11-19T15:39:11;9.00;;;2.70;;